createdAt,value
2019-05-01T00:01:54.984Z,9.70
2019-05-01T00:04:35.018Z,9.70
2019-05-01T00:07:06.055Z,9.70
2019-05-01T00:09:35.711Z,9.70
2019-05-01T00:12:05.215Z,9.70
2019-05-01T00:14:34.677Z,9.60
2019-05-01T00:17:04.079Z,9.60
2019-05-01T00:19:33.563Z,9.60
2019-05-01T00:22:03.048Z,9.60
2019-05-01T00:24:32.426Z,9.60
2019-05-01T00:27:01.907Z,9.60
2019-05-01T00:29:31.361Z,9.60
2019-05-01T00:32:13.325Z,9.60
2019-05-01T00:34:42.796Z,9.60
2019-05-01T00:37:12.190Z,9.60
2019-05-01T00:39:41.680Z,9.60
2019-05-01T00:42:11.070Z,9.60
2019-05-01T00:44:40.568Z,9.60
2019-05-01T00:47:10.048Z,9.60
2019-05-01T00:49:39.509Z,9.50
2019-05-01T00:52:08.980Z,9.40
2019-05-01T00:54:39.967Z,9.40
2019-05-01T00:57:14.024Z,9.40
2019-05-01T00:59:45.012Z,9.40
2019-05-01T01:02:22.328Z,9.40
2019-05-01T01:04:51.815Z,9.30
2019-05-01T01:07:21.265Z,9.30
2019-05-01T01:09:50.743Z,9.20
2019-05-01T01:12:20.208Z,9.20
2019-05-01T01:14:49.688Z,9.20
2019-05-01T01:17:19.179Z,9.10
2019-05-01T01:19:48.645Z,9.10
2019-05-01T01:22:18.100Z,9.10
2019-05-01T01:24:47.508Z,9.10
2019-05-01T01:27:16.961Z,9.00
2019-05-01T01:29:46.346Z,9.00
2019-05-01T01:32:15.851Z,8.90
2019-05-01T01:34:45.313Z,8.90
2019-05-01T01:37:14.780Z,8.90
2019-05-01T01:39:44.276Z,8.90
2019-05-01T01:42:13.884Z,8.90
2019-05-01T01:44:47.654Z,8.90
2019-05-01T01:47:17.111Z,8.90
2019-05-01T01:49:46.513Z,8.90
2019-05-01T01:52:15.996Z,8.90
2019-05-01T01:54:45.459Z,8.90
2019-05-01T01:57:15.050Z,8.80
2019-05-01T01:59:44.543Z,8.80
2019-05-01T02:02:18.536Z,8.80
2019-05-01T02:05:04.875Z,8.80
2019-05-01T02:07:34.530Z,8.70
2019-05-01T02:10:04.930Z,8.70
2019-05-01T02:12:34.395Z,8.70
2019-05-01T02:15:04.306Z,8.70
2019-05-01T02:17:33.767Z,8.70
2019-05-01T02:20:03.760Z,8.70
2019-05-01T02:22:33.143Z,8.70
2019-05-01T02:25:02.899Z,8.70
2019-05-01T02:27:46.248Z,8.60
2019-05-01T02:30:17.281Z,8.60
2019-05-01T02:32:47.043Z,8.50
2019-05-01T02:35:16.540Z,8.40
2019-05-01T02:37:46.335Z,8.30
2019-05-01T02:40:41.957Z,8.20
2019-05-01T02:43:12.807Z,8.20
2019-05-01T02:45:43.259Z,8.10
2019-05-01T02:48:13.948Z,8.00
2019-05-01T02:50:43.636Z,8.00
2019-05-01T02:53:13.093Z,8.00
2019-05-01T02:55:44.144Z,8.00
2019-05-01T02:58:13.596Z,8.00
2019-05-01T03:00:43.585Z,7.90
2019-05-01T03:03:12.975Z,7.90
2019-05-01T03:05:42.463Z,7.80
2019-05-01T03:08:11.962Z,7.80
2019-05-01T03:10:41.573Z,7.70
2019-05-01T03:13:11.029Z,7.70
2019-05-01T03:15:40.515Z,7.60
2019-05-01T03:18:23.860Z,7.60
2019-05-01T03:21:03.673Z,7.50
2019-05-01T03:23:40.482Z,7.50
2019-05-01T03:26:09.960Z,7.50
2019-05-01T03:28:39.497Z,7.50
2019-05-01T03:31:08.955Z,7.50
2019-05-01T03:33:38.474Z,7.50
2019-05-01T03:36:07.878Z,7.50
2019-05-01T03:38:37.352Z,7.50
2019-05-01T03:41:06.711Z,7.40
2019-05-01T03:43:36.059Z,7.40
2019-05-01T03:46:05.714Z,7.30
2019-05-01T03:48:35.211Z,7.30
2019-05-01T03:51:05.012Z,7.30
2019-05-01T03:53:35.100Z,7.20
2019-05-01T03:56:04.496Z,7.20
2019-05-01T03:58:33.978Z,7.20
2019-05-01T04:01:10.803Z,7.20
2019-05-01T04:03:41.840Z,7.20
2019-05-01T04:06:11.303Z,7.20
2019-05-01T04:08:40.792Z,7.20
2019-05-01T04:11:10.590Z,7.20
2019-05-01T04:13:40.429Z,7.20
2019-05-01T04:16:10.210Z,7.20
2019-05-01T04:18:40.067Z,7.20
2019-05-01T04:21:10.031Z,7.20
2019-05-01T04:23:41.101Z,7.20
2019-05-01T04:26:10.559Z,7.20
2019-05-01T04:28:47.286Z,7.20
2019-05-01T04:31:21.218Z,7.30
2019-05-01T04:33:54.991Z,7.30
2019-05-01T04:36:25.977Z,7.30
2019-05-01T04:38:55.528Z,7.30
2019-05-01T04:41:24.934Z,7.30
2019-05-01T04:43:54.393Z,7.40
2019-05-01T04:46:23.857Z,7.50
2019-05-01T04:48:53.270Z,7.50
2019-05-01T04:51:22.888Z,7.60
2019-05-01T04:53:52.276Z,7.70
2019-05-01T04:56:21.899Z,7.70
2019-05-01T04:58:51.429Z,7.80
2019-05-01T05:01:20.984Z,7.80
2019-05-01T05:03:50.392Z,7.90
2019-05-01T05:06:19.852Z,8.00
2019-05-01T05:08:49.341Z,8.00
2019-05-01T05:11:23.125Z,8.10
2019-05-01T05:14:08.698Z,8.20
2019-05-01T05:16:45.667Z,8.20
2019-05-01T05:19:15.158Z,8.20
2019-05-01T05:21:44.657Z,8.20
2019-05-01T05:24:14.193Z,8.30
2019-05-01T05:26:43.679Z,8.30
2019-05-01T05:29:13.136Z,8.40
2019-05-01T05:31:42.604Z,8.40
2019-05-01T05:34:12.510Z,8.50
2019-05-01T05:36:41.903Z,8.50
2019-05-01T05:39:12.965Z,8.60
2019-05-01T05:41:42.426Z,8.70
2019-05-01T05:44:12.273Z,8.70
2019-05-01T05:46:41.741Z,8.80
2019-05-01T05:49:11.160Z,8.90
2019-05-01T05:51:45.138Z,9.00
2019-05-01T05:54:17.213Z,9.00
2019-05-01T05:56:48.216Z,9.10
2019-05-01T05:59:19.186Z,9.20
2019-05-01T06:01:55.999Z,9.30
2019-05-01T06:04:26.962Z,9.40
2019-05-01T06:06:58.699Z,9.50
2019-05-01T06:09:31.081Z,9.60
2019-05-01T06:12:04.989Z,9.70
2019-05-01T06:14:47.425Z,9.80
2019-05-01T06:17:23.681Z,9.90
2019-05-01T06:20:00.224Z,10.00
2019-05-01T06:22:34.084Z,10.10
2019-05-01T06:25:06.653Z,10.30
2019-05-01T06:27:36.125Z,10.40
2019-05-01T06:30:11.045Z,10.60
2019-05-01T06:32:40.087Z,10.70
2019-05-01T06:35:09.788Z,10.90
2019-05-01T06:38:00.210Z,11.10
2019-05-01T06:40:46.216Z,11.20
2019-05-01T06:43:27.249Z,11.40
2019-05-01T06:46:13.847Z,11.60
2019-05-01T06:48:54.689Z,11.60
2019-05-01T06:51:35.108Z,11.70
2019-05-01T06:54:11.180Z,11.90
2019-05-01T06:56:38.248Z,12.00
2019-05-01T06:59:07.653Z,12.20
2019-05-01T07:01:37.120Z,12.40
2019-05-01T07:04:06.578Z,12.50
2019-05-01T07:06:36.539Z,12.60
2019-05-01T07:09:11.785Z,12.60
2019-05-01T07:11:42.280Z,12.70
2019-05-01T07:14:15.790Z,12.90
2019-05-01T07:16:42.201Z,13.00
2019-05-01T07:19:12.063Z,13.10
2019-05-01T07:21:41.465Z,13.20
2019-05-01T07:24:10.965Z,13.30
2019-05-01T07:26:43.910Z,13.40
2019-05-01T07:29:25.091Z,13.50
2019-05-01T07:31:54.556Z,13.60
2019-05-01T07:34:26.219Z,13.70
2019-05-01T07:36:55.236Z,13.70
2019-05-01T07:39:24.742Z,13.70
2019-05-01T07:41:55.796Z,13.90
2019-05-01T07:44:30.107Z,14.00
2019-05-01T07:47:05.346Z,14.20
2019-05-01T07:49:56.598Z,14.10
2019-05-01T07:52:26.056Z,14.10
2019-05-01T07:54:55.703Z,14.20
2019-05-01T07:57:25.199Z,14.20
2019-05-01T07:59:58.319Z,14.40
2019-05-01T08:02:30.831Z,14.50
2019-05-01T08:04:57.073Z,14.60
2019-05-01T08:07:27.846Z,14.80
2019-05-01T08:09:57.733Z,14.90
2019-05-01T08:12:27.108Z,15.00
2019-05-01T08:14:56.585Z,15.10
2019-05-01T08:17:27.664Z,15.00
2019-05-01T08:19:58.726Z,15.00
2019-05-01T08:22:32.008Z,15.20
2019-05-01T08:25:00.935Z,15.30
2019-05-01T08:27:51.216Z,15.40
2019-05-01T08:30:20.713Z,15.40
2019-05-01T08:33:03.913Z,15.60
2019-05-01T08:35:36.401Z,15.90
2019-05-01T08:38:04.871Z,15.80
2019-05-01T08:40:37.039Z,15.80
2019-05-01T08:43:05.580Z,15.90
2019-05-01T08:45:42.711Z,16.00
2019-05-01T08:48:13.797Z,16.00
2019-05-01T08:50:43.415Z,16.20
2019-05-01T08:53:12.893Z,16.50
2019-05-01T08:55:45.167Z,16.60
2019-05-01T08:58:14.302Z,16.70
2019-05-01T09:00:44.835Z,16.80
2019-05-01T09:03:18.576Z,16.90
2019-05-01T09:05:45.536Z,17.00
2019-05-01T09:08:15.035Z,17.20
2019-05-01T09:10:44.433Z,17.40
2019-05-01T09:13:13.894Z,17.50
2019-05-01T09:15:43.800Z,17.50
2019-05-01T09:18:14.545Z,17.70
2019-05-01T09:20:45.596Z,17.80
2019-05-01T09:23:16.171Z,17.80
2019-05-01T09:26:06.762Z,17.80
2019-05-01T09:28:42.416Z,17.80
2019-05-01T09:31:13.486Z,17.90
2019-05-01T09:33:42.964Z,17.80
2019-05-01T09:36:12.472Z,18.10
2019-05-01T09:38:41.874Z,18.40
2019-05-01T09:41:11.340Z,18.50
2019-05-01T09:43:40.892Z,18.70
2019-05-01T09:46:10.351Z,18.70
2019-05-01T09:48:39.837Z,18.80
2019-05-01T09:51:17.139Z,18.80
2019-05-01T09:53:48.241Z,18.90
2019-05-01T09:56:22.228Z,19.00
2019-05-01T09:58:51.682Z,19.40
2019-05-01T10:01:24.098Z,19.40
2019-05-01T10:03:54.684Z,19.50
2019-05-01T10:06:23.635Z,19.80
2019-05-01T10:08:53.095Z,19.70
2019-05-01T10:11:22.601Z,19.70
2019-05-01T10:13:53.634Z,19.90
2019-05-01T10:16:23.357Z,20.10
2019-05-01T10:18:52.837Z,20.30
2019-05-01T10:21:22.557Z,20.20
2019-05-01T10:23:53.388Z,20.20
2019-05-01T10:26:25.461Z,20.20
2019-05-01T10:29:00.242Z,20.20
2019-05-01T10:31:31.288Z,20.60
2019-05-01T10:34:11.552Z,20.80
2019-05-01T10:36:45.017Z,21.10
2019-05-01T10:39:16.024Z,21.30
2019-05-01T10:41:46.329Z,21.60
2019-05-01T10:44:16.918Z,21.60
2019-05-01T10:46:46.404Z,21.60
2019-05-01T10:49:15.803Z,21.70
2019-05-01T10:51:45.285Z,22.00
2019-05-01T10:54:14.636Z,22.20
2019-05-01T10:56:44.060Z,22.40
2019-05-01T10:59:13.490Z,22.70
2019-05-01T11:01:50.558Z,23.20
2019-05-01T11:04:20.022Z,23.60
2019-05-01T11:06:49.509Z,23.80
2019-05-01T11:09:19.002Z,23.60
2019-05-01T11:11:48.416Z,23.60
2019-05-01T11:14:17.911Z,23.80
2019-05-01T11:16:47.366Z,23.60
2019-05-01T11:19:16.853Z,23.70
2019-05-01T11:21:46.335Z,24.10
2019-05-01T11:24:15.815Z,24.40
2019-05-01T11:26:45.414Z,24.80
2019-05-01T11:29:14.876Z,25.00
2019-05-01T11:31:45.922Z,25.00
2019-05-01T11:34:16.916Z,25.10
2019-05-01T11:36:56.962Z,25.00
2019-05-01T11:39:31.000Z,25.00
2019-05-01T11:42:07.974Z,25.20
2019-05-01T11:44:37.518Z,25.30
2019-05-01T11:47:06.989Z,25.60
2019-05-01T11:49:36.487Z,25.90
2019-05-01T11:52:06.184Z,25.90
2019-05-01T11:54:35.593Z,26.30
2019-05-01T11:57:05.054Z,26.60
2019-05-01T11:59:34.582Z,26.80
2019-05-01T12:02:04.026Z,26.80
2019-05-01T12:04:33.470Z,26.60
2019-05-01T12:07:02.971Z,26.20
2019-05-01T12:09:32.433Z,26.20
2019-05-01T12:12:03.489Z,26.50
2019-05-01T12:14:32.968Z,26.70
2019-05-01T12:17:09.814Z,27.10
2019-05-01T12:19:39.446Z,27.40
2019-05-01T12:22:09.068Z,27.60
2019-05-01T12:24:38.690Z,27.70
2019-05-01T12:27:08.183Z,27.60
2019-05-01T12:29:37.672Z,27.60
2019-05-01T12:32:07.205Z,27.30
2019-05-01T12:34:36.694Z,26.60
2019-05-01T12:37:13.797Z,26.30
2019-05-01T12:39:43.294Z,25.90
2019-05-01T12:42:13.486Z,26.10
2019-05-01T12:44:42.941Z,26.30
2019-05-01T12:47:14.027Z,26.50
2019-05-01T12:49:45.096Z,26.60
2019-05-01T12:52:16.154Z,26.60
2019-05-01T12:55:03.846Z,26.50
2019-05-01T12:57:33.291Z,26.50
2019-05-01T13:00:08.976Z,26.80
2019-05-01T13:02:33.921Z,27.00
2019-05-01T13:05:03.804Z,27.00
2019-05-01T13:07:33.264Z,27.60
2019-05-01T13:10:03.125Z,27.80
2019-05-01T13:12:32.594Z,28.10
2019-05-01T13:15:02.088Z,27.70
2019-05-01T13:17:31.570Z,27.10
2019-05-01T13:20:02.922Z,26.60
2019-05-01T13:22:32.390Z,26.60
2019-05-01T13:25:01.905Z,26.60
2019-05-01T13:27:32.948Z,25.70
2019-05-01T13:30:03.982Z,25.00
2019-05-01T13:32:46.988Z,24.40
2019-05-01T13:35:16.460Z,24.20
2019-05-01T13:39:01.797Z,24.20
2019-05-01T13:41:31.203Z,24.20
2019-05-01T13:44:00.663Z,24.90
2019-05-01T13:46:30.153Z,28.30
2019-05-01T13:48:59.657Z,31.30
2019-05-01T13:51:29.247Z,33.70
2019-05-01T13:53:58.770Z,34.90
2019-05-01T13:56:28.232Z,34.30
2019-05-01T13:58:57.799Z,35.20
2019-05-01T14:01:27.399Z,35.70
2019-05-01T14:03:56.867Z,36.50
2019-05-01T14:06:26.359Z,37.20
2019-05-01T14:08:55.847Z,38.30
2019-05-01T14:11:25.235Z,37.40
2019-05-01T14:13:54.725Z,37.50
2019-05-01T14:16:24.222Z,36.80
2019-05-01T14:19:13.052Z,36.80
2019-05-01T14:21:55.897Z,36.70
2019-05-01T14:24:32.669Z,35.90
2019-05-01T14:27:02.179Z,35.20
2019-05-01T14:29:31.641Z,35.20
2019-05-01T14:32:01.105Z,34.20
2019-05-01T14:34:32.129Z,34.20
2019-05-01T14:37:01.600Z,34.20
2019-05-01T14:39:31.071Z,34.20
2019-05-01T14:42:00.560Z,34.50
2019-05-01T14:44:36.489Z,34.80
2019-05-01T14:47:01.252Z,34.20
2019-05-01T14:49:30.734Z,32.70
2019-05-01T14:52:00.219Z,32.40
2019-05-01T14:54:29.754Z,32.60
2019-05-01T14:56:59.270Z,32.50
2019-05-01T14:59:28.734Z,32.40
2019-05-01T15:01:58.251Z,32.30
2019-05-01T15:04:27.783Z,31.50
2019-05-01T15:06:57.197Z,30.10
2019-05-01T15:09:26.652Z,29.10
2019-05-01T15:11:56.135Z,29.40
2019-05-01T15:14:27.119Z,29.40
2019-05-01T15:17:04.263Z,29.40
2019-05-01T15:19:35.311Z,29.30
2019-05-01T15:22:04.778Z,29.10
2019-05-01T15:24:34.284Z,29.30
2019-05-01T15:27:03.676Z,29.40
2019-05-01T15:29:33.148Z,29.00
2019-05-01T15:32:02.649Z,28.70
2019-05-01T15:34:32.107Z,27.40
2019-05-01T15:37:01.565Z,26.20
2019-05-01T15:39:32.644Z,25.50
2019-05-01T15:42:06.425Z,25.30
2019-05-01T15:44:37.435Z,25.50
2019-05-01T15:47:06.906Z,25.60
2019-05-01T15:49:36.406Z,25.00
2019-05-01T15:52:05.914Z,24.80
2019-05-01T15:54:35.423Z,24.70
2019-05-01T15:57:05.000Z,24.80
2019-05-01T15:59:34.483Z,24.70
2019-05-01T16:02:04.156Z,24.50
2019-05-01T16:04:33.614Z,24.50
2019-05-01T16:07:03.051Z,24.80
2019-05-01T16:09:32.518Z,25.00
2019-05-01T16:12:15.567Z,24.60
2019-05-01T16:14:45.947Z,23.90
2019-05-01T16:17:15.416Z,23.20
2019-05-01T16:19:44.925Z,22.50
2019-05-01T16:22:14.396Z,22.20
2019-05-01T16:24:54.939Z,21.80
2019-05-01T16:27:24.386Z,21.60
2019-05-01T16:29:53.787Z,21.40
2019-05-01T16:32:23.216Z,21.30
2019-05-01T16:34:52.685Z,21.10
2019-05-01T16:37:22.199Z,20.90
2019-05-01T16:40:02.275Z,20.70
2019-05-01T16:42:33.297Z,20.60
2019-05-01T16:45:02.795Z,20.50
2019-05-01T16:47:32.261Z,20.60
2019-05-01T16:50:01.732Z,20.40
2019-05-01T16:52:32.790Z,20.30
2019-05-01T16:55:02.254Z,20.20
2019-05-01T16:57:31.723Z,20.20
2019-05-01T17:00:01.317Z,20.10
2019-05-01T17:02:38.096Z,20.10
2019-05-01T17:05:12.110Z,20.00
2019-05-01T17:07:52.161Z,19.80
2019-05-01T17:10:23.240Z,19.80
2019-05-01T17:12:54.272Z,19.80
2019-05-01T17:15:31.356Z,19.80
2019-05-01T17:18:00.830Z,19.80
2019-05-01T17:20:30.733Z,19.60
2019-05-01T17:23:00.166Z,19.50
2019-05-01T17:25:29.701Z,19.50
2019-05-01T17:28:02.925Z,19.50
2019-05-01T17:30:45.094Z,19.50
2019-05-01T17:34:32.183Z,19.40
2019-05-01T17:37:02.052Z,19.40
2019-05-01T17:39:31.544Z,19.20
2019-05-01T17:42:01.948Z,19.30
2019-05-01T17:44:32.102Z,19.20
2019-05-01T17:47:01.581Z,19.10
2019-05-01T17:49:30.958Z,19.00
2019-05-01T17:52:00.452Z,19.00
2019-05-01T17:54:30.014Z,19.00
2019-05-01T17:56:59.648Z,18.90
2019-05-01T17:59:29.141Z,18.80
2019-05-01T18:02:18.641Z,18.70
2019-05-01T18:04:49.701Z,18.60
2019-05-01T18:07:19.170Z,18.50
2019-05-01T18:09:51.452Z,18.40
2019-05-01T18:12:23.500Z,18.20
2019-05-01T18:14:51.381Z,18.20
2019-05-01T18:17:20.859Z,18.10
2019-05-01T18:19:50.336Z,18.00
2019-05-01T18:22:39.628Z,17.90
2019-05-01T18:25:22.676Z,17.80
2019-05-01T18:28:08.555Z,17.80
2019-05-01T18:30:39.619Z,17.70
2019-05-01T18:33:09.089Z,17.60
2019-05-01T18:35:39.008Z,17.60
2019-05-01T18:38:11.499Z,17.60
2019-05-01T18:40:51.780Z,17.50
2019-05-01T18:43:21.268Z,17.40
2019-05-01T18:45:52.757Z,17.30
2019-05-01T18:48:22.439Z,17.30
2019-05-01T18:50:54.625Z,17.10
2019-05-01T18:53:23.396Z,17.10
2019-05-01T18:55:52.885Z,17.00
2019-05-01T18:58:22.376Z,16.80
2019-05-01T19:00:51.865Z,16.80
2019-05-01T19:03:22.548Z,16.70
2019-05-01T19:05:52.240Z,16.60
2019-05-01T19:08:21.860Z,16.60
2019-05-01T19:10:51.375Z,16.60
2019-05-01T19:13:21.247Z,16.50
2019-05-01T19:15:50.803Z,16.50
2019-05-01T19:18:20.367Z,16.50
2019-05-01T19:20:59.369Z,16.40
2019-05-01T19:23:22.355Z,16.40
2019-05-01T19:25:56.319Z,16.40
2019-05-01T19:28:23.744Z,16.30
2019-05-01T19:30:53.208Z,16.20
2019-05-01T19:33:22.686Z,16.20
2019-05-01T19:35:52.188Z,16.20
2019-05-01T19:38:22.246Z,16.20
2019-05-01T19:40:51.751Z,16.20
2019-05-01T19:43:21.245Z,16.20
2019-05-01T19:45:50.787Z,16.20
2019-05-01T19:48:20.333Z,16.20
2019-05-01T19:50:49.896Z,16.20
2019-05-01T19:53:19.419Z,16.20
2019-05-01T19:55:49.054Z,16.20
2019-05-01T19:58:18.552Z,16.10
2019-05-01T20:00:54.130Z,16.10
2019-05-01T20:03:23.790Z,16.10
2019-05-01T20:05:53.278Z,16.00
2019-05-01T20:08:22.859Z,16.00
2019-05-01T20:10:52.376Z,16.00
2019-05-01T20:13:21.841Z,16.00
2019-05-01T20:15:51.346Z,16.00
2019-05-01T20:18:20.821Z,16.00
2019-05-01T20:20:50.294Z,16.00
2019-05-01T20:23:19.819Z,16.00
2019-05-01T20:25:50.970Z,16.10
2019-05-01T20:28:22.362Z,16.10
2019-05-01T20:30:51.794Z,16.10
2019-05-01T20:33:21.275Z,16.00
2019-05-01T20:35:50.819Z,16.00
2019-05-01T20:38:20.317Z,16.00
2019-05-01T20:40:49.809Z,16.00
2019-05-01T20:43:19.267Z,16.00
2019-05-01T20:45:49.497Z,15.90
2019-05-01T20:48:23.467Z,15.90
2019-05-01T20:50:51.237Z,15.90
2019-05-01T20:53:20.749Z,15.90
2019-05-01T20:55:51.797Z,15.90
2019-05-01T20:58:21.957Z,15.90
2019-05-01T21:00:54.766Z,15.90
2019-05-01T21:03:24.407Z,15.80
2019-05-01T21:05:58.494Z,15.80
2019-05-01T21:08:39.123Z,15.90
2019-05-01T21:11:11.130Z,15.90
2019-05-01T21:13:39.562Z,15.90
2019-05-01T21:16:09.058Z,15.80
2019-05-01T21:18:38.575Z,15.80
2019-05-01T21:21:08.056Z,15.80
2019-05-01T21:23:37.578Z,15.80
2019-05-01T21:26:07.090Z,15.80
2019-05-01T21:28:36.674Z,15.80
2019-05-01T21:31:06.067Z,15.80
2019-05-01T21:33:35.551Z,15.80
2019-05-01T21:36:08.471Z,15.80
2019-05-01T21:38:36.229Z,15.70
2019-05-01T21:41:05.729Z,15.70
2019-05-01T21:43:36.986Z,15.70
2019-05-01T21:46:06.344Z,15.70
2019-05-01T21:48:35.858Z,15.70
2019-05-01T21:51:07.387Z,15.60
2019-05-01T21:53:37.289Z,15.60
2019-05-01T21:56:07.955Z,15.50
2019-05-01T21:58:37.372Z,15.50
2019-05-01T22:01:07.441Z,15.30
2019-05-01T22:03:36.930Z,15.30
2019-05-01T22:06:06.390Z,15.20
2019-05-01T22:08:39.301Z,15.20
2019-05-01T22:11:07.192Z,15.20
2019-05-01T22:13:36.661Z,15.10
2019-05-01T22:16:07.630Z,15.10
2019-05-01T22:18:38.695Z,15.20
2019-05-01T22:21:09.724Z,15.20
2019-05-01T22:23:57.128Z,15.20
2019-05-01T22:26:28.210Z,15.20
2019-05-01T22:28:59.270Z,15.10
2019-05-01T22:31:46.652Z,15.00
2019-05-01T22:34:17.695Z,15.00
2019-05-01T22:36:47.152Z,15.00
2019-05-01T22:39:16.646Z,14.90
2019-05-01T22:41:46.112Z,14.90
2019-05-01T22:44:18.039Z,14.90
2019-05-01T22:46:46.654Z,14.90
2019-05-01T22:49:16.068Z,14.90
2019-05-01T22:51:45.453Z,14.90
2019-05-01T22:54:14.867Z,14.90
2019-05-01T22:56:44.339Z,15.00
2019-05-01T22:59:13.808Z,15.00
2019-05-01T23:01:49.182Z,14.90
2019-05-01T23:04:17.220Z,14.90
2019-05-01T23:06:47.293Z,14.90
2019-05-01T23:09:18.375Z,14.90
2019-05-01T23:11:48.046Z,14.90
2019-05-01T23:14:17.525Z,14.80
2019-05-01T23:16:58.668Z,14.70
2019-05-01T23:19:29.655Z,14.70
2019-05-01T23:21:59.209Z,14.70
2019-05-01T23:24:28.702Z,14.70
2019-05-01T23:26:58.170Z,14.70
2019-05-01T23:29:27.650Z,14.70
2019-05-01T23:31:57.570Z,14.70
2019-05-01T23:34:27.931Z,14.70
2019-05-01T23:36:57.569Z,14.70
2019-05-01T23:39:27.018Z,14.70
2019-05-01T23:41:56.407Z,14.70
2019-05-01T23:44:25.902Z,14.70
2019-05-01T23:46:55.335Z,14.60
2019-05-01T23:49:24.818Z,14.60
2019-05-01T23:51:54.306Z,14.50
2019-05-01T23:54:23.724Z,14.50
2019-05-01T23:56:53.118Z,14.50
2019-05-01T23:59:22.608Z,14.50
